Decatur, Indiana
Current Conditions -  °F | °C
As of 4:54 AM on Friday 21 Nov 2014 (Local Time) from KFWA Reporting Station
Clear Clear  
Wind Chill:   Ceiling: Unl
Heat Index: 12°   Visibility: 10mi
Dew Point:   Wind: 8mph
Humidity: 73%   Direction: 270°W
Pressure: 30.36"   Gusts: NA
Location:  40.83°N, 84.92°W
Report Text: KFWA 210954Z 27007KT 10SM CLR M11/M15 A3036 RMK AO2 SLP297 T11111150
Loading
Personal Weather Stations






























Interactive Weather Map New forecast layout! Learn more

10-Day Weather Forecast

Advertisements
Track Severe Weather on mobile